Time;durP1;ratioP1;P1;durP2;ratioP2;P2;SDS_P1;SDS_P2;PMS_P1;PMS_P2;Temp;Humidity;BMP_temperature;BMP_pressure;BME280_temperature;BME280_humidity;BME280_pressure;Samples;Min_cycle;Max_cycle;Signal;HPM_P1;HPM_P2
2022/10/01 00:02:07;;;;;;;;;;;18.40;69.90;;;;;;5167613;23;20228;-44
2022/10/01 00:04:29;;;;;;;;;;;18.40;69.90;;;;;;5168789;22;19903;-43
2022/10/01 00:06:51;;;;;;;;;;;18.40;70.00;;;;;;5170330;23;20443;-43
2022/10/01 00:09:13;;;;;;;;;;;18.40;69.90;;;;;;5171666;23;20318;-42
2022/10/01 00:11:35;;;;;;;;;;;18.40;69.90;;;;;;5176056;23;19907;-42
2022/10/01 00:13:57;;;;;;;;;;;18.40;69.80;;;;;;5176907;23;19899;-45
2022/10/01 00:16:23;;;;;;;;;;;18.40;69.70;;;;;;5177287;23;19904;-45
2022/10/01 00:18:46;;;;;;;;;;;18.40;69.60;;;;;;5165612;23;19904;-47
2022/10/01 00:21:08;;;;;;;;;;;18.40;69.50;;;;;;5170058;23;20344;-43
2022/10/01 00:23:30;;;;;;;;;;;18.50;69.80;;;;;;5170354;23;20240;-46
2022/10/01 00:25:52;;;;;;;;;;;18.50;69.40;;;;;;5170850;23;19907;-43
2022/10/01 00:28:14;;;;;;;;;;;18.50;69.40;;;;;;5170463;23;19911;-44
2022/10/01 00:30:36;;;;;;;;;;;18.50;69.50;;;;;;5170690;23;19934;-43
2022/10/01 00:32:58;;;;;;;;;;;18.50;69.40;;;;;;5161110;23;19903;-42
2022/10/01 00:35:23;;;;;;;;;;;18.50;69.50;;;;;;5168675;23;19915;-47
2022/10/01 00:37:48;;;;;;;;;;;18.50;69.70;;;;;;5168568;23;20316;-42
2022/10/01 00:40:10;;;;;;;;;;;18.60;70.00;;;;;;5168306;23;19946;-42
2022/10/01 00:42:32;;;;;;;;;;;18.60;70.00;;;;;;5167840;23;20515;-42
2022/10/01 00:44:55;;;;;;;;;;;18.60;70.00;;;;;;5168866;23;19918;-46
2022/10/01 00:47:32;;;;;;;;;;;18.70;69.90;;;;;;5158243;23;19923;-43
2022/10/01 00:49:59;;;;;;;;;;;18.70;69.80;;;;;;5168798;23;20233;-59
2022/10/01 00:52:24;;;;;;;;;;;18.70;69.80;;;;;;5168550;23;19915;-46
2022/10/01 00:54:54;;;;;;;;;;;18.80;68.50;;;;;;5160154;23;19935;-45
2022/10/01 00:57:18;;;;;;;;;;;18.80;68.00;;;;;;5159436;23;19907;-45
2022/10/01 00:59:40;;;;;;;;;;;18.80;67.40;;;;;;5168140;23;19950;-43
2022/10/01 01:02:02;;;;;;;;;;;18.80;67.10;;;;;;5169891;23;19967;-49
2022/10/01 01:04:24;;;;;;;;;;;18.80;67.50;;;;;;5169595;22;19903;-44
2022/10/01 01:06:52;;;;;;;;;;;18.90;66.90;;;;;;5169057;23;19937;-43
2022/10/01 01:09:14;;;;;;;;;;;18.80;66.80;;;;;;5158708;23;20259;-44
2022/10/01 01:11:50;;;;;;;;;;;18.90;66.70;;;;;;5168682;23;19907;-43
2022/10/01 01:14:20;;;;;;;;;;;18.80;66.50;;;;;;5167228;23;19908;-43
2022/10/01 01:16:49;;;;;;;;;;;18.80;66.50;;;;;;5169448;23;19931;-45
2022/10/01 01:19:31;;;;;;;;;;;18.80;66.30;;;;;;5170851;23;19903;-46
2022/10/01 01:21:59;;;;;;;;;;;18.80;66.30;;;;;;5157643;23;20304;-47
2022/10/01 01:24:39;;;;;;;;;;;18.80;66.20;;;;;;5158957;23;20271;-44
2022/10/01 01:27:24;;;;;;;;;;;18.80;66.20;;;;;;5165785;23;19921;-44
2022/10/01 01:29:46;;;;;;;;;;;18.80;66.10;;;;;;5157247;23;19903;-43
2022/10/01 01:32:12;;;;;;;;;;;18.80;66.10;;;;;;5166418;23;20323;-44
2022/10/01 01:34:35;;;;;;;;;;;18.70;66.00;;;;;;5166869;23;19907;-45
2022/10/01 01:37:00;;;;;;;;;;;18.80;66.00;;;;;;5166682;23;19931;-48
2022/10/01 01:39:24;;;;;;;;;;;18.70;66.00;;;;;;5167001;23;20292;-44
2022/10/01 01:41:48;;;;;;;;;;;18.80;65.90;;;;;;5166705;23;19926;-44
2022/10/01 01:44:11;;;;;;;;;;;18.80;65.70;;;;;;5159121;23;19926;-43
2022/10/01 01:46:35;;;;;;;;;;;18.80;65.70;;;;;;5168719;23;20251;-44
2022/10/01 01:48:58;;;;;;;;;;;18.70;65.70;;;;;;5170421;23;19999;-46
2022/10/01 01:51:30;;;;;;;;;;;18.80;65.70;;;;;;5167485;23;19918;-43
2022/10/01 01:53:53;;;;;;;;;;;18.80;65.70;;;;;;5161192;23;19924;-45
2022/10/01 01:56:16;;;;;;;;;;;18.70;65.60;;;;;;5169684;23;19914;-45
2022/10/01 01:58:38;;;;;;;;;;;18.70;65.50;;;;;;5160957;23;19954;-42
2022/10/01 02:01:00;;;;;;;;;;;18.70;65.50;;;;;;5170040;23;20295;-42
2022/10/01 02:03:25;;;;;;;;;;;18.70;65.50;;;;;;5169568;22;20381;-45
2022/10/01 02:05:57;;;;;;;;;;;18.70;65.50;;;;;;5166705;23;20282;-42
2022/10/01 02:08:54;;;;;;;;;;;18.80;65.50;;;;;;5168426;23;20298;-44
2022/10/01 02:11:16;;;;;;;;;;;18.80;65.50;;;;;;5043384;23;19944;-43
2022/10/01 02:13:58;;;;;;;;;;;18.70;65.50;;;;;;5147647;23;19907;-44
2022/10/01 02:16:27;;;;;;;;;;;18.80;65.40;;;;;;5160340;23;19941;-44
2022/10/01 02:18:49;;;;;;;;;;;18.80;65.40;;;;;;5169978;23;20507;-44
2022/10/01 02:21:43;;;;;;;;;;;18.80;65.30;;;;;;5169258;23;19986;-45
2022/10/01 02:24:23;;;;;;;;;;;18.80;65.30;;;;;;5108209;23;19910;-44
2022/10/01 02:26:47;;;;;;;;;;;18.80;65.20;;;;;;5170210;23;19942;-46
2022/10/01 02:29:12;;;;;;;;;;;18.80;65.20;;;;;;5168783;23;19911;-47
2022/10/01 02:31:34;;;;;;;;;;;18.80;65.20;;;;;;5159414;23;19907;-44
2022/10/01 02:33:58;;;;;;;;;;;18.80;65.20;;;;;;5169584;23;19904;-45
2022/10/01 02:36:20;;;;;;;;;;;18.80;65.30;;;;;;5169414;23;19907;-46
2022/10/01 02:38:44;;;;;;;;;;;18.80;65.10;;;;;;5169146;23;19984;-45
2022/10/01 02:41:08;;;;;;;;;;;18.90;65.10;;;;;;5169485;23;19903;-44
2022/10/01 02:43:33;;;;;;;;;;;18.90;65.00;;;;;;5169752;23;20370;-48
2022/10/01 02:45:57;;;;;;;;;;;18.90;65.10;;;;;;5168949;23;19904;-45
2022/10/01 02:48:19;;;;;;;;;;;18.90;65.10;;;;;;5169163;23;19917;-46
2022/10/01 02:51:04;;;;;;;;;;;18.90;65.00;;;;;;5160171;23;19911;-46
2022/10/01 02:53:36;;;;;;;;;;;18.90;65.00;;;;;;5120126;23;19903;-45
2022/10/01 02:55:58;;;;;;;;;;;18.90;64.90;;;;;;5168473;23;19907;-45
2022/10/01 02:58:20;;;;;;;;;;;19.00;64.90;;;;;;5169324;23;19914;-46
2022/10/01 03:00:42;;;;;;;;;;;18.90;64.80;;;;;;5169019;23;19981;-47
2022/10/01 03:03:04;;;;;;;;;;;18.90;64.80;;;;;;5169264;22;19926;-46
2022/10/01 03:05:26;;;;;;;;;;;18.90;64.80;;;;;;5168886;23;19930;-45
2022/10/01 03:07:49;;;;;;;;;;;18.90;64.70;;;;;;5160360;23;19911;-47
2022/10/01 03:10:11;;;;;;;;;;;18.90;64.70;;;;;;5169054;23;19910;-48
2022/10/01 03:12:34;;;;;;;;;;;19.00;64.70;;;;;;5159077;23;19986;-48
2022/10/01 03:14:56;;;;;;;;;;;19.00;64.70;;;;;;5169100;23;19993;-44
2022/10/01 03:17:18;;;;;;;;;;;19.00;64.70;;;;;;5168986;23;20375;-46
2022/10/01 03:19:40;;;;;;;;;;;19.00;64.60;;;;;;5169155;23;19914;-44
2022/10/01 03:22:02;;;;;;;;;;;19.00;64.50;;;;;;5158740;23;19934;-48
2022/10/01 03:24:24;;;;;;;;;;;19.10;64.60;;;;;;5169472;23;19914;-45
2022/10/01 03:26:46;;;;;;;;;;;19.10;64.40;;;;;;5169322;23;19939;-47
2022/10/01 03:29:08;;;;;;;;;;;19.10;64.40;;;;;;5169294;23;19957;-45
2022/10/01 03:31:30;;;;;;;;;;;19.20;64.30;;;;;;5167650;23;19990;-44
2022/10/01 03:33:52;;;;;;;;;;;19.20;64.30;;;;;;5167970;23;19990;-44
2022/10/01 03:36:14;;;;;;;;;;;19.20;64.10;;;;;;5158968;23;19950;-44
2022/10/01 03:38:36;;;;;;;;;;;19.30;64.00;;;;;;5169075;23;19961;-44
2022/10/01 03:40:58;;;;;;;;;;;19.30;64.00;;;;;;5169096;23;19908;-46
2022/10/01 03:43:20;;;;;;;;;;;19.40;63.90;;;;;;5168345;23;20417;-48
2022/10/01 03:45:42;;;;;;;;;;;19.40;63.80;;;;;;5168782;23;19907;-44
2022/10/01 03:48:04;;;;;;;;;;;19.40;63.80;;;;;;5169482;23;20014;-46
2022/10/01 03:50:26;;;;;;;;;;;19.40;63.80;;;;;;5160750;23;20288;-46
2022/10/01 03:52:49;;;;;;;;;;;19.40;63.80;;;;;;5167057;23;19907;-50
2022/10/01 03:55:11;;;;;;;;;;;19.30;63.70;;;;;;5160421;23;20298;-50
2022/10/01 03:57:33;;;;;;;;;;;19.40;63.80;;;;;;5168741;23;19986;-49
2022/10/01 03:59:55;;;;;;;;;;;19.40;63.80;;;;;;5160951;23;19910;-44
2022/10/01 04:02:17;;;;;;;;;;;19.40;63.70;;;;;;5168787;23;19961;-45
2022/10/01 04:04:39;;;;;;;;;;;19.40;63.70;;;;;;5168705;22;19910;-43
2022/10/01 04:07:01;;;;;;;;;;;19.40;63.70;;;;;;5167640;23;19954;-48
2022/10/01 04:09:22;;;;;;;;;;;19.50;63.60;;;;;;5167832;23;19930;-46
2022/10/01 04:11:44;;;;;;;;;;;19.50;63.50;;;;;;5136176;23;19979;-47
2022/10/01 04:14:07;;;;;;;;;;;19.60;63.20;;;;;;5167946;23;20320;-43
2022/10/01 04:16:29;;;;;;;;;;;19.60;63.10;;;;;;5160455;23;19903;-45
2022/10/01 04:18:51;;;;;;;;;;;19.70;62.90;;;;;;5169704;23;19989;-44
2022/10/01 04:21:14;;;;;;;;;;;19.70;62.90;;;;;;5168995;23;19925;-44
2022/10/01 04:23:36;;;;;;;;;;;19.80;62.80;;;;;;5161874;23;20005;-44
2022/10/01 04:26:04;;;;;;;;;;;19.90;62.70;;;;;;5172756;23;19899;-47
2022/10/01 04:28:26;;;;;;;;;;;20.00;62.50;;;;;;5173914;23;19919;-44
2022/10/01 04:30:48;;;;;;;;;;;20.00;62.20;;;;;;5176896;23;19907;-47
2022/10/01 04:33:15;;;;;;;;;;;20.00;62.00;;;;;;5176775;23;19908;-44
2022/10/01 04:35:38;;;;;;;;;;;20.00;62.10;;;;;;5172628;23;19908;-45
2022/10/01 04:38:02;;;;;;;;;;;20.00;62.10;;;;;;5170845;23;20332;-45
2022/10/01 04:40:24;;;;;;;;;;;20.00;62.00;;;;;;5162253;23;19975;-46
2022/10/01 04:42:46;;;;;;;;;;;20.00;62.00;;;;;;5170168;23;19926;-48
2022/10/01 04:45:09;;;;;;;;;;;20.00;62.10;;;;;;5170404;23;19986;-47
2022/10/01 04:47:31;;;;;;;;;;;20.00;62.10;;;;;;5170171;23;20010;-48
2022/10/01 04:49:53;;;;;;;;;;;20.00;62.10;;;;;;5171004;23;19907;-47
2022/10/01 04:52:15;;;;;;;;;;;20.10;61.90;;;;;;5167434;23;19942;-48
2022/10/01 04:54:37;;;;;;;;;;;20.20;61.60;;;;;;5168615;23;19916;-45
2022/10/01 04:56:58;;;;;;;;;;;20.30;61.20;;;;;;5169940;23;19978;-47
2022/10/01 04:59:20;;;;;;;;;;;20.30;61.10;;;;;;5170322;23;19986;-48
2022/10/01 05:01:42;;;;;;;;;;;20.40;61.10;;;;;;5167996;23;19907;-48
2022/10/01 05:04:04;;;;;;;;;;;20.30;60.90;;;;;;5169889;22;20356;-45
2022/10/01 05:06:26;;;;;;;;;;;20.30;61.00;;;;;;5169010;23;19911;-44
2022/10/01 05:08:48;;;;;;;;;;;20.30;61.00;;;;;;5169997;23;19939;-43
2022/10/01 05:11:10;;;;;;;;;;;20.30;61.00;;;;;;5169907;23;20386;-46
2022/10/01 05:13:32;;;;;;;;;;;20.30;61.00;;;;;;5170674;23;19907;-46
2022/10/01 05:15:54;;;;;;;;;;;20.20;61.00;;;;;;5169492;23;20588;-44
2022/10/01 05:18:16;;;;;;;;;;;20.30;61.20;;;;;;5169129;23;19904;-47
2022/10/01 05:20:38;;;;;;;;;;;20.30;61.40;;;;;;5168945;23;19946;-45
2022/10/01 05:23:00;;;;;;;;;;;20.40;61.10;;;;;;5170357;23;19973;-44
2022/10/01 05:25:23;;;;;;;;;;;20.30;60.80;;;;;;5170228;23;19930;-49
2022/10/01 05:27:45;;;;;;;;;;;20.40;61.00;;;;;;5169288;23;19911;-44
2022/10/01 05:30:08;;;;;;;;;;;20.50;60.70;;;;;;5170750;23;19907;-47
2022/10/01 05:32:30;;;;;;;;;;;20.50;60.50;;;;;;5169743;23;19907;-45
2022/10/01 05:34:52;;;;;;;;;;;20.50;60.60;;;;;;5161509;23;19903;-44
2022/10/01 05:37:14;;;;;;;;;;;20.50;60.60;;;;;;5169375;23;20333;-51
2022/10/01 05:39:36;;;;;;;;;;;20.50;60.40;;;;;;5169526;23;19907;-45
2022/10/01 05:41:58;;;;;;;;;;;20.60;60.40;;;;;;5161449;23;19914;-46
2022/10/01 05:44:24;;;;;;;;;;;20.50;60.30;;;;;;5169898;23;19907;-46
2022/10/01 05:46:45;;;;;;;;;;;20.50;60.40;;;;;;5169550;23;19914;-46
2022/10/01 05:49:08;;;;;;;;;;;20.50;60.40;;;;;;5169659;23;19922;-45
2022/10/01 05:51:30;;;;;;;;;;;20.50;61.20;;;;;;5160803;23;19908;-44
2022/10/01 05:53:57;;;;;;;;;;;20.50;60.60;;;;;;5169339;23;20432;-49
2022/10/01 05:56:19;;;;;;;;;;;20.50;60.50;;;;;;5169238;23;19982;-46
2022/10/01 05:58:41;;;;;;;;;;;20.50;60.30;;;;;;5168902;23;20278;-46
2022/10/01 06:01:03;;;;;;;;;;;20.60;60.10;;;;;;5169183;23;19983;-48
2022/10/01 06:03:28;;;;;;;;;;;20.60;59.90;;;;;;5168985;22;19903;-44
2022/10/01 06:05:51;;;;;;;;;;;20.60;59.90;;;;;;5169803;23;19911;-46
2022/10/01 06:08:13;;;;;;;;;;;20.60;60.00;;;;;;5169390;23;19915;-46
2022/10/01 06:10:36;;;;;;;;;;;20.50;60.10;;;;;;5161805;23;19911;-44
2022/10/01 06:13:01;;;;;;;;;;;20.50;60.20;;;;;;5168871;23;19913;-44
2022/10/01 06:15:23;;;;;;;;;;;20.40;60.20;;;;;;5158983;23;19908;-46
2022/10/01 06:17:45;;;;;;;;;;;20.40;60.30;;;;;;5169316;23;19978;-44
2022/10/01 06:20:10;;;;;;;;;;;20.40;60.40;;;;;;5159255;23;19940;-45
2022/10/01 06:22:32;;;;;;;;;;;20.40;60.40;;;;;;5158729;23;20376;-49
2022/10/01 06:24:54;;;;;;;;;;;20.30;60.40;;;;;;5168447;23;19907;-45
2022/10/01 06:27:17;;;;;;;;;;;20.30;60.50;;;;;;5168846;23;19965;-44
2022/10/01 06:29:39;;;;;;;;;;;20.20;60.60;;;;;;5161511;23;19904;-49
2022/10/01 06:32:01;;;;;;;;;;;20.20;60.60;;;;;;5167399;23;20266;-44
2022/10/01 06:34:23;;;;;;;;;;;20.20;60.80;;;;;;5168468;23;19907;-44
2022/10/01 06:36:45;;;;;;;;;;;20.10;60.80;;;;;;5168840;23;19954;-44
2022/10/01 06:39:07;;;;;;;;;;;20.10;60.80;;;;;;5167474;23;19903;-45
2022/10/01 06:41:28;;;;;;;;;;;20.10;60.90;;;;;;5169093;23;19910;-44
2022/10/01 06:43:50;;;;;;;;;;;20.10;60.90;;;;;;5169222;23;19942;-45
2022/10/01 06:46:12;;;;;;;;;;;20.10;61.10;;;;;;5168900;23;19907;-44
2022/10/01 06:48:35;;;;;;;;;;;20.00;61.00;;;;;;5167003;23;19956;-44
2022/10/01 06:50:58;;;;;;;;;;;20.00;61.70;;;;;;5158455;23;19912;-45
2022/10/01 06:53:19;;;;;;;;;;;20.00;61.20;;;;;;5168236;23;19911;-45
2022/10/01 06:55:41;;;;;;;;;;;20.00;61.20;;;;;;5168616;23;19911;-47
2022/10/01 06:58:05;;;;;;;;;;;20.00;61.30;;;;;;5168942;23;19910;-44
2022/10/01 07:00:28;;;;;;;;;;;20.00;61.30;;;;;;5169200;23;19968;-45
2022/10/01 07:02:50;;;;;;;;;;;19.90;61.30;;;;;;5168920;23;19903;-46
2022/10/01 07:05:13;;;;;;;;;;;19.90;61.30;;;;;;5158738;23;19908;-49
2022/10/01 07:07:36;;;;;;;;;;;19.90;61.50;;;;;;5161037;23;19915;-45
2022/10/01 07:09:58;;;;;;;;;;;19.90;61.50;;;;;;5169724;23;19968;-44
2022/10/01 07:12:20;;;;;;;;;;;19.80;61.60;;;;;;5170185;23;19966;-44
2022/10/01 07:14:42;;;;;;;;;;;19.80;61.60;;;;;;5169035;23;20513;-44
2022/10/01 07:17:04;;;;;;;;;;;19.80;61.70;;;;;;5169387;23;19985;-45
2022/10/01 07:19:26;;;;;;;;;;;19.80;61.70;;;;;;5168031;23;20609;-44
2022/10/01 07:21:48;;;;;;;;;;;19.80;61.80;;;;;;5168644;23;19915;-45
2022/10/01 07:24:10;;;;;;;;;;;19.80;61.70;;;;;;5169117;23;19915;-50
2022/10/01 07:26:32;;;;;;;;;;;19.80;62.50;;;;;;5169016;23;19904;-45
2022/10/01 07:28:54;;;;;;;;;;;19.70;61.80;;;;;;5168671;23;20307;-44
2022/10/01 07:31:16;;;;;;;;;;;19.80;61.90;;;;;;5169147;23;19907;-46
2022/10/01 07:33:38;;;;;;;;;;;19.70;61.80;;;;;;5168642;23;19907;-44
2022/10/01 07:36:01;;;;;;;;;;;19.70;61.80;;;;;;5170509;23;19903;-46
2022/10/01 07:38:23;;;;;;;;;;;19.70;61.90;;;;;;5172470;23;19912;-44
2022/10/01 07:40:50;;;;;;;;;;;19.70;61.90;;;;;;5171058;23;19965;-46
2022/10/01 07:43:13;;;;;;;;;;;19.70;61.90;;;;;;5164866;23;19907;-47
2022/10/01 07:45:35;;;;;;;;;;;19.70;61.90;;;;;;5173104;23;19931;-44
2022/10/01 07:47:58;;;;;;;;;;;19.70;61.90;;;;;;5140413;23;19922;-44
2022/10/01 07:50:20;;;;;;;;;;;19.70;61.90;;;;;;5169449;23;19918;-47
2022/10/01 07:52:42;;;;;;;;;;;19.60;61.80;;;;;;5169303;23;19907;-44
2022/10/01 07:55:04;;;;;;;;;;;19.60;61.80;;;;;;5168492;23;19941;-44
2022/10/01 07:57:26;;;;;;;;;;;19.60;61.80;;;;;;5167215;23;19954;-44
2022/10/01 07:59:48;;;;;;;;;;;19.60;61.80;;;;;;5166689;23;19907;-45
2022/10/01 08:02:17;;;;;;;;;;;19.60;61.90;;;;;;5168229;23;19942;-45
2022/10/01 08:07:20;;;;;;;;;;;19.60;62.50;;;;;;5168971;23;19926;-47
2022/10/01 08:09:42;;;;;;;;;;;19.50;61.90;;;;;;5137868;23;19907;-45
2022/10/01 08:12:04;;;;;;;;;;;19.50;61.90;;;;;;5170191;23;19915;-50
2022/10/01 08:14:27;;;;;;;;;;;19.50;62.00;;;;;;5168503;23;19911;-45
2022/10/01 08:16:49;;;;;;;;;;;19.50;61.90;;;;;;5167972;23;20022;-44
2022/10/01 08:19:11;;;;;;;;;;;19.50;61.90;;;;;;5167552;23;19904;-46
2022/10/01 08:21:34;;;;;;;;;;;19.50;62.10;;;;;;5159438;23;20364;-46
2022/10/01 08:23:56;;;;;;;;;;;19.40;62.10;;;;;;5169926;23;20224;-45
2022/10/01 08:26:18;;;;;;;;;;;19.40;62.00;;;;;;5170441;23;19904;-45
2022/10/01 08:28:40;;;;;;;;;;;19.40;62.10;;;;;;5170118;23;19951;-44
2022/10/01 08:31:06;;;;;;;;;;;19.40;62.00;;;;;;5161916;23;20005;-47
2022/10/01 08:33:28;;;;;;;;;;;19.40;62.70;;;;;;5160785;23;19907;-45
2022/10/01 08:35:50;;;;;;;;;;;19.40;62.30;;;;;;5169771;23;19911;-45
2022/10/01 08:38:12;;;;;;;;;;;19.40;62.20;;;;;;5168818;23;19966;-45
2022/10/01 08:40:37;;;;;;;;;;;19.40;62.20;;;;;;5170489;23;19911;-47
2022/10/01 08:43:04;;;;;;;;;;;19.40;62.20;;;;;;5170527;23;19961;-44
2022/10/01 08:45:28;;;;;;;;;;;19.30;62.20;;;;;;5160353;23;19903;-46
2022/10/01 08:47:57;;;;;;;;;;;19.30;62.30;;;;;;5162452;23;19911;-44
2022/10/01 08:50:28;;;;;;;;;;;19.30;62.30;;;;;;5165202;23;19911;-44
2022/10/01 08:52:54;;;;;;;;;;;19.30;62.30;;;;;;5174140;23;20352;-44
2022/10/01 08:55:19;;;;;;;;;;;19.30;62.40;;;;;;5173397;23;19923;-47
2022/10/01 08:57:57;;;;;;;;;;;19.30;62.40;;;;;;5162738;23;20375;-46
2022/10/01 09:00:19;;;;;;;;;;;19.30;62.40;;;;;;5172273;23;19950;-45
2022/10/01 09:02:43;;;;;;;;;;;19.20;62.30;;;;;;5159866;23;20320;-46
2022/10/01 09:05:20;;;;;;;;;;;19.20;62.40;;;;;;5169756;23;19911;-45
2022/10/01 09:07:45;;;;;;;;;;;19.20;62.40;;;;;;5170507;23;20341;-49
2022/10/01 09:10:13;;;;;;;;;;;19.20;62.50;;;;;;5170197;23;19907;-46
2022/10/01 09:12:41;;;;;;;;;;;19.20;62.60;;;;;;5170344;23;19939;-46
2022/10/01 09:15:14;;;;;;;;;;;19.20;62.60;;;;;;5170034;23;19985;-48
2022/10/01 09:17:52;;;;;;;;;;;19.20;62.60;;;;;;5160024;23;19907;-47
2022/10/01 09:20:29;;;;;;;;;;;19.10;62.60;;;;;;5159659;23;19951;-47
2022/10/01 09:22:51;;;;;;;;;;;19.10;62.60;;;;;;5160153;23;20332;-45
2022/10/01 09:25:32;;;;;;;;;;;19.10;62.70;;;;;;5170046;23;19907;-47
2022/10/01 09:27:59;;;;;;;;;;;19.10;62.60;;;;;;5161738;23;19986;-46
2022/10/01 09:30:23;;;;;;;;;;;19.10;62.70;;;;;;5169303;23;19907;-48
2022/10/01 09:32:50;;;;;;;;;;;19.10;62.70;;;;;;5159857;23;19990;-49
2022/10/01 09:35:20;;;;;;;;;;;19.10;62.70;;;;;;5170023;23;19914;-46
2022/10/01 09:37:49;;;;;;;;;;;19.10;62.70;;;;;;5161186;23;20344;-44
2022/10/01 09:40:20;;;;;;;;;;;19.00;62.70;;;;;;5159923;23;19903;-45
2022/10/01 09:42:42;;;;;;;;;;;19.10;62.80;;;;;;5170055;23;19914;-47
2022/10/01 09:45:05;;;;;;;;;;;19.00;62.70;;;;;;5159934;23;19907;-46
2022/10/01 09:47:27;;;;;;;;;;;19.00;62.70;;;;;;5169731;23;19915;-45
2022/10/01 09:49:49;;;;;;;;;;;19.00;62.80;;;;;;5170065;23;19955;-47
2022/10/01 09:52:18;;;;;;;;;;;19.00;62.80;;;;;;5169309;23;19974;-45
2022/10/01 09:54:43;;;;;;;;;;;19.00;62.80;;;;;;5161106;23;19911;-46
2022/10/01 09:57:08;;;;;;;;;;;19.00;62.80;;;;;;5168337;23;19903;-44
2022/10/01 09:59:33;;;;;;;;;;;18.90;62.80;;;;;;5170112;23;20337;-49
2022/10/01 10:01:57;;;;;;;;;;;19.00;62.90;;;;;;5169250;23;19907;-46
2022/10/01 10:04:22;;;;;;;;;;;19.00;62.90;;;;;;5169436;22;19973;-45
2022/10/01 10:06:44;;;;;;;;;;;19.00;62.80;;;;;;5160654;23;19907;-46
2022/10/01 10:09:14;;;;;;;;;;;18.90;62.80;;;;;;5169354;23;19934;-45
2022/10/01 10:11:36;;;;;;;;;;;18.90;62.90;;;;;;5169536;23;20245;-45
2022/10/01 10:14:00;;;;;;;;;;;18.90;62.90;;;;;;5169991;23;19985;-46
2022/10/01 10:16:32;;;;;;;;;;;18.90;62.80;;;;;;5169633;23;19908;-47
2022/10/01 10:19:14;;;;;;;;;;;18.90;62.90;;;;;;5169989;23;20368;-54
2022/10/01 10:21:36;;;;;;;;;;;18.90;62.90;;;;;;5161088;23;19907;-46
2022/10/01 10:24:00;;;;;;;;;;;18.90;62.90;;;;;;5160918;23;19982;-48
2022/10/01 10:26:28;;;;;;;;;;;18.80;63.00;;;;;;5170158;23;19908;-47
2022/10/01 10:28:50;;;;;;;;;;;18.80;63.00;;;;;;5159955;23;20341;-48
2022/10/01 10:31:15;;;;;;;;;;;18.80;62.90;;;;;;5169588;23;19904;-45
2022/10/01 10:33:37;;;;;;;;;;;18.80;63.10;;;;;;5169362;23;20008;-43
2022/10/01 10:36:01;;;;;;;;;;;18.80;63.10;;;;;;5168873;23;19908;-45
2022/10/01 10:38:25;;;;;;;;;;;18.80;63.20;;;;;;5168684;23;19908;-46
2022/10/01 10:40:46;;;;;;;;;;;18.80;63.10;;;;;;5169371;23;20320;-45
2022/10/01 10:43:19;;;;;;;;;;;18.70;63.10;;;;;;5169766;23;20320;-46
2022/10/01 10:45:45;;;;;;;;;;;18.70;63.20;;;;;;5158873;23;19904;-45
2022/10/01 10:48:11;;;;;;;;;;;18.70;63.10;;;;;;5158911;23;19958;-45
2022/10/01 10:50:38;;;;;;;;;;;18.70;63.30;;;;;;5167131;23;19946;-45
2022/10/01 10:53:11;;;;;;;;;;;18.70;63.30;;;;;;5169997;23;20193;-44
2022/10/01 10:55:33;;;;;;;;;;;18.70;63.20;;;;;;5138684;23;19916;-44
2022/10/01 10:57:55;;;;;;;;;;;18.60;63.20;;;;;;5168594;23;19904;-46
2022/10/01 11:00:22;;;;;;;;;;;18.60;63.20;;;;;;5169366;23;19987;-44
2022/10/01 11:02:55;;;;;;;;;;;18.60;63.20;;;;;;5159586;23;20320;-46
2022/10/01 11:05:19;;;;;;;;;;;18.60;63.50;;;;;;5159136;23;19986;-45
2022/10/01 11:07:43;;;;;;;;;;;18.60;63.30;;;;;;5169193;23;19915;-44
2022/10/01 11:10:05;;;;;;;;;;;18.60;63.40;;;;;;5169351;23;20422;-51
2022/10/01 11:12:46;;;;;;;;;;;18.60;63.40;;;;;;5138835;23;19904;-49
2022/10/01 11:15:14;;;;;;;;;;;18.50;63.40;;;;;;5161024;23;19915;-44
2022/10/01 11:17:48;;;;;;;;;;;18.50;63.30;;;;;;5158074;23;19941;-44
2022/10/01 11:20:19;;;;;;;;;;;18.50;63.50;;;;;;5169326;23;19914;-47
2022/10/01 11:22:41;;;;;;;;;;;18.50;63.60;;;;;;5160402;23;19911;-45
2022/10/01 11:25:21;;;;;;;;;;;18.50;63.50;;;;;;5168685;23;19954;-45
2022/10/01 11:27:53;;;;;;;;;;;18.50;63.50;;;;;;5167405;23;20246;-45
2022/10/01 11:30:15;;;;;;;;;;;18.50;63.60;;;;;;5161229;23;19903;-48
2022/10/01 11:32:40;;;;;;;;;;;18.50;63.60;;;;;;5169135;23;20040;-48
2022/10/01 11:35:20;;;;;;;;;;;18.50;63.60;;;;;;5140023;23;19934;-46
2022/10/01 11:38:05;;;;;;;;;;;18.40;63.60;;;;;;5168915;23;19934;-48
2022/10/01 11:40:32;;;;;;;;;;;18.40;63.80;;;;;;5162185;23;19935;-47
2022/10/01 11:42:58;;;;;;;;;;;18.40;63.70;;;;;;5162538;23;20010;-50
2022/10/01 11:45:22;;;;;;;;;;;18.40;63.80;;;;;;5162332;23;19943;-49
2022/10/01 11:47:49;;;;;;;;;;;18.40;63.70;;;;;;5170727;23;20252;-48
2022/10/01 11:50:17;;;;;;;;;;;18.40;63.70;;;;;;5170754;23;19903;-46
2022/10/01 11:52:59;;;;;;;;;;;18.40;63.70;;;;;;5162976;23;19907;-49
2022/10/01 11:58:49;;;;;;;;;;;18.30;63.70;;;;;;5169809;23;19978;-48
2022/10/01 12:01:10;;;;;;;;;;;18.30;63.70;;;;;;5161002;23;19910;-47
2022/10/01 12:03:36;;;;;;;;;;;18.30;63.80;;;;;;5170842;22;20423;-50
2022/10/01 12:05:58;;;;;;;;;;;18.30;63.90;;;;;;5170175;23;19908;-48
2022/10/01 12:08:23;;;;;;;;;;;18.30;64.00;;;;;;5170616;23;19962;-46
2022/10/01 12:10:55;;;;;;;;;;;18.30;63.90;;;;;;5170825;23;19904;-49
2022/10/01 12:13:21;;;;;;;;;;;18.20;64.00;;;;;;5170724;23;20317;-45
2022/10/01 12:15:45;;;;;;;;;;;18.30;64.00;;;;;;5161832;23;19907;-44
2022/10/01 12:18:18;;;;;;;;;;;18.30;64.10;;;;;;5170663;23;19969;-46
2022/10/01 12:20:47;;;;;;;;;;;18.20;63.90;;;;;;5169983;23;19922;-46
2022/10/01 12:23:16;;;;;;;;;;;18.20;64.00;;;;;;5168478;23;19971;-44
2022/10/01 12:25:42;;;;;;;;;;;18.20;64.00;;;;;;5170134;23;20198;-49
2022/10/01 12:28:11;;;;;;;;;;;18.20;64.00;;;;;;5170372;23;19915;-46
2022/10/01 12:30:56;;;;;;;;;;;18.20;64.00;;;;;;5168230;23;19907;-45
2022/10/01 12:33:36;;;;;;;;;;;18.20;64.10;;;;;;5160892;23;19914;-44
2022/10/01 12:35:58;;;;;;;;;;;18.20;64.10;;;;;;5165037;23;20541;-44
2022/10/01 12:38:35;;;;;;;;;;;18.10;64.00;;;;;;5170283;23;19918;-44
2022/10/01 12:41:09;;;;;;;;;;;18.20;64.10;;;;;;5169863;23;19907;-46
2022/10/01 12:43:40;;;;;;;;;;;18.10;64.10;;;;;;5170724;23;19911;-46
2022/10/01 12:46:24;;;;;;;;;;;18.10;64.10;;;;;;5170049;23;19907;-43
2022/10/01 12:48:46;;;;;;;;;;;18.10;64.10;;;;;;5159311;23;20320;-46
2022/10/01 12:51:27;;;;;;;;;;;18.10;64.10;;;;;;5161184;23;20243;-45
2022/10/01 12:54:07;;;;;;;;;;;18.10;64.20;;;;;;5169894;23;19912;-45
2022/10/01 12:56:34;;;;;;;;;;;18.10;64.20;;;;;;5169332;23;20351;-44
2022/10/01 12:59:05;;;;;;;;;;;18.10;64.20;;;;;;5170427;23;20271;-46
2022/10/01 13:01:30;;;;;;;;;;;18.10;64.20;;;;;;5161464;23;19930;-44
2022/10/01 13:04:03;;;;;;;;;;;18.10;64.20;;;;;;5169989;22;20338;-43
2022/10/01 13:06:35;;;;;;;;;;;18.00;64.20;;;;;;5159846;23;19942;-42
2022/10/01 13:09:02;;;;;;;;;;;18.00;64.20;;;;;;5169885;23;19930;-42
2022/10/01 13:11:24;;;;;;;;;;;18.00;64.30;;;;;;5169242;23;19952;-42
2022/10/01 13:13:53;;;;;;;;;;;18.00;65.00;;;;;;5163199;23;19904;-45
2022/10/01 13:16:35;;;;;;;;;;;18.00;65.20;;;;;;5169626;23;19931;-48
2022/10/01 13:18:57;;;;;;;;;;;18.00;65.40;;;;;;5143090;23;19900;-45
2022/10/01 13:21:23;;;;;;;;;;;18.10;65.50;;;;;;5172474;23;20353;-44
2022/10/01 13:23:48;;;;;;;;;;;18.10;65.90;;;;;;5173532;23;19903;-44
2022/10/01 13:26:16;;;;;;;;;;;18.10;66.00;;;;;;5171792;23;19954;-44
2022/10/01 13:28:52;;;;;;;;;;;18.10;66.00;;;;;;5162792;23;20493;-49
2022/10/01 13:31:15;;;;;;;;;;;18.20;66.20;;;;;;5169110;23;19904;-44
2022/10/01 13:33:37;;;;;;;;;;;18.20;66.20;;;;;;5168884;23;20323;-48
2022/10/01 13:35:59;;;;;;;;;;;18.20;66.10;;;;;;5167528;23;19929;-44
2022/10/01 13:38:29;;;;;;;;;;;18.20;66.90;;;;;;5159319;23;19914;-44
2022/10/01 13:40:58;;;;;;;;;;;18.20;66.30;;;;;;5169170;23;20282;-48
2022/10/01 13:43:22;;;;;;;;;;;18.20;65.50;;;;;;5160215;23;20360;-45
2022/10/01 13:45:48;;;;;;;;;;;18.20;65.50;;;;;;5170496;23;19903;-45
2022/10/01 13:48:10;;;;;;;;;;;18.20;65.10;;;;;;5169284;23;19912;-44
2022/10/01 13:50:33;;;;;;;;;;;18.20;65.10;;;;;;5169725;23;19908;-45
2022/10/01 13:53:05;;;;;;;;;;;18.20;64.90;;;;;;5166338;23;19904;-44
2022/10/01 13:55:28;;;;;;;;;;;18.10;65.40;;;;;;5168281;23;20289;-44
2022/10/01 13:58:00;;;;;;;;;;;18.20;65.80;;;;;;5168159;23;20339;-42
2022/10/01 14:00:23;;;;;;;;;;;18.10;65.90;;;;;;5157695;23;19914;-44
2022/10/01 14:02:58;;;;;;;;;;;18.10;66.30;;;;;;5168417;23;20275;-45
2022/10/01 14:05:21;;;;;;;;;;;18.10;66.40;;;;;;5167715;23;20017;-43
2022/10/01 14:07:45;;;;;;;;;;;18.10;66.50;;;;;;5159848;23;20226;-44
2022/10/01 14:10:10;;;;;;;;;;;18.10;66.60;;;;;;5168412;23;20029;-41
2022/10/01 14:17:55;;;;;;;;;;;18.20;67.50;;;;;;5167716;23;19983;-44